sensor_id;sensor_type;location;lat;lon;timestamp;pressure;altitude;pressure_sealevel;temperature;humidity
76022;BME280;64718;52.124;6.226;2023-03-05T00:01:03;102229.63;;;2.67;100.00
76022;BME280;64718;52.124;6.226;2023-03-05T00:03:30;102231.28;;;2.64;100.00
76022;BME280;64718;52.124;6.226;2023-03-05T00:05:58;102221.88;;;2.64;100.00
76022;BME280;64718;52.124;6.226;2023-03-05T00:08:25;102221.94;;;2.70;100.00
76022;BME280;64718;52.124;6.226;2023-03-05T00:10:55;102214.22;;;2.69;100.00
76022;BME280;64718;52.124;6.226;2023-03-05T00:13:22;102213.44;;;2.76;100.00
76022;BME280;64718;52.124;6.226;2023-03-05T00:15:49;102212.63;;;2.78;100.00
76022;BME280;64718;52.124;6.226;2023-03-05T00:18:16;102214.34;;;2.79;100.00
76022;BME280;64718;52.124;6.226;2023-03-05T00:20:42;102206.63;;;2.78;100.00
76022;BME280;64718;52.124;6.226;2023-03-05T00:23:10;102205.75;;;2.77;100.00
76022;BME280;64718;52.124;6.226;2023-03-05T00:25:37;102203.22;;;2.80;100.00
76022;BME280;64718;52.124;6.226;2023-03-05T00:28:04;102203.28;;;2.85;100.00
76022;BME280;64718;52.124;6.226;2023-03-05T00:30:31;102203.25;;;2.82;100.00
76022;BME280;64718;52.124;6.226;2023-03-05T00:32:58;102204.16;;;2.87;100.00
76022;BME280;64718;52.124;6.226;2023-03-05T00:35:24;102196.47;;;2.89;100.00
76022;BME280;64718;52.124;6.226;2023-03-05T00:37:51;102194.81;;;2.91;100.00
76022;BME280;64718;52.124;6.226;2023-03-05T00:40:19;102192.25;;;2.92;100.00
76022;BME280;64718;52.124;6.226;2023-03-05T00:42:46;102198.25;;;2.93;100.00
76022;BME280;64718;52.124;6.226;2023-03-05T00:45:12;102189.69;;;2.92;100.00
76022;BME280;64718;52.124;6.226;2023-03-05T00:47:39;102184.56;;;2.94;100.00
76022;BME280;64718;52.124;6.226;2023-03-05T00:50:06;102185.44;;;2.96;100.00
76022;BME280;64718;52.124;6.226;2023-03-05T00:52:33;102180.28;;;2.96;100.00
76022;BME280;64718;52.124;6.226;2023-03-05T00:55:00;102182.84;;;2.94;100.00
76022;BME280;64718;52.124;6.226;2023-03-05T00:57:28;102184.56;;;2.95;100.00
76022;BME280;64718;52.124;6.226;2023-03-05T00:59:54;102175.16;;;2.96;100.00
76022;BME280;64718;52.124;6.226;2023-03-05T01:02:21;102175.13;;;2.93;100.00
76022;BME280;64718;52.124;6.226;2023-03-05T01:04:47;102171.69;;;2.91;100.00
76022;BME280;64718;52.124;6.226;2023-03-05T01:07:14;102170.81;;;2.90;100.00
76022;BME280;64718;52.124;6.226;2023-03-05T01:09:40;102166.53;;;2.89;100.00
76022;BME280;64718;52.124;6.226;2023-03-05T01:12:07;102161.41;;;2.91;100.00
76022;BME280;64718;52.124;6.226;2023-03-05T01:14:35;102162.31;;;2.96;100.00
76022;BME280;64718;52.124;6.226;2023-03-05T01:17:02;102162.28;;;2.93;100.00
76022;BME280;64718;52.124;6.226;2023-03-05T01:19:29;102157.16;;;2.94;100.00
76022;BME280;64718;52.124;6.226;2023-03-05T01:21:55;102151.91;;;2.88;100.00
76022;BME280;64718;52.124;6.226;2023-03-05T01:24:22;102153.72;;;2.92;100.00
76022;BME280;64718;52.124;6.226;2023-03-05T01:26:48;102148.53;;;2.89;100.00
76022;BME280;64718;52.124;6.226;2023-03-05T01:29:15;102150.19;;;2.85;100.00
76022;BME280;64718;52.124;6.226;2023-03-05T01:31:43;102137.31;;;2.82;100.00
76022;BME280;64718;52.124;6.226;2023-03-05T01:34:09;102136.47;;;2.85;100.00
76022;BME280;64718;52.124;6.226;2023-03-05T01:36:36;102133.91;;;2.85;100.00
76022;BME280;64718;52.124;6.226;2023-03-05T01:39:03;102137.31;;;2.82;100.00
76022;BME280;64718;52.124;6.226;2023-03-05T01:41:29;102122.78;;;2.84;100.00
76022;BME280;64718;52.124;6.226;2023-03-05T01:43:56;102126.22;;;2.86;100.00
76022;BME280;64718;52.124;6.226;2023-03-05T01:46:28;102117.63;;;2.83;100.00
76022;BME280;64718;52.124;6.226;2023-03-05T01:49:01;102115.00;;;2.80;100.00
76022;BME280;64718;52.124;6.226;2023-03-05T01:51:30;102111.56;;;2.78;100.00
76022;BME280;64718;52.124;6.226;2023-03-05T01:53:59;102098.69;;;2.75;100.00
76022;BME280;64718;52.124;6.226;2023-03-05T01:56:27;102103.84;;;2.75;100.00
76022;BME280;64718;52.124;6.226;2023-03-05T01:58:55;102094.41;;;2.72;100.00
76022;BME280;64718;52.124;6.226;2023-03-05T02:01:29;102093.53;;;2.70;100.00
76022;BME280;64718;52.124;6.226;2023-03-05T02:03:55;102098.66;;;2.70;100.00
76022;BME280;64718;52.124;6.226;2023-03-05T02:06:23;102089.25;;;2.72;100.00
76022;BME280;64718;52.124;6.226;2023-03-05T02:08:50;102083.25;;;2.72;100.00
76022;BME280;64718;52.124;6.226;2023-03-05T02:11:17;102080.69;;;2.70;100.00
76022;BME280;64718;52.124;6.226;2023-03-05T02:13:44;102076.38;;;2.69;100.00
76022;BME280;64718;52.124;6.226;2023-03-05T02:16:11;102072.97;;;2.70;100.00
76022;BME280;64718;52.124;6.226;2023-03-05T02:18:37;102072.97;;;2.70;100.00
76022;BME280;64718;52.124;6.226;2023-03-05T02:21:10;102068.69;;;2.71;100.00
76022;BME280;64718;52.124;6.226;2023-03-05T02:23:37;102070.38;;;2.69;100.00
76022;BME280;64718;52.124;6.226;2023-03-05T02:26:07;102061.84;;;2.71;100.00
76022;BME280;64718;52.124;6.226;2023-03-05T02:28:37;102063.53;;;2.69;100.00
76022;BME280;64718;52.124;6.226;2023-03-05T02:31:09;102058.44;;;2.72;100.00
76022;BME280;64718;52.124;6.226;2023-03-05T02:33:36;102050.72;;;2.71;100.00
76022;BME280;64718;52.124;6.226;2023-03-05T02:36:03;102037.88;;;2.71;100.00
76022;BME280;64718;52.124;6.226;2023-03-05T02:38:32;102047.34;;;2.76;100.00
76022;BME280;64718;52.124;6.226;2023-03-05T02:40:58;102048.16;;;2.74;100.00
76022;BME280;64718;52.124;6.226;2023-03-05T02:43:25;102041.31;;;2.74;100.00
76022;BME280;64718;52.124;6.226;2023-03-05T02:45:52;102049.91;;;2.78;100.00
76022;BME280;64718;52.124;6.226;2023-03-05T02:48:18;102038.78;;;2.76;100.00
76022;BME280;64718;52.124;6.226;2023-03-05T02:50:46;102041.31;;;2.71;100.00
76022;BME280;64718;52.124;6.226;2023-03-05T02:53:12;102034.44;;;2.70;100.00
76022;BME280;64718;52.124;6.226;2023-03-05T02:55:40;102035.31;;;2.72;100.00
76022;BME280;64718;52.124;6.226;2023-03-05T02:58:07;102031.94;;;2.78;100.00
76022;BME280;64718;52.124;6.226;2023-03-05T03:00:33;102021.66;;;2.76;100.00
76022;BME280;64718;52.124;6.226;2023-03-05T03:03:00;102025.03;;;2.71;100.00
76022;BME280;64718;52.124;6.226;2023-03-05T03:05:26;102024.19;;;2.73;100.00
76022;BME280;64718;52.124;6.226;2023-03-05T03:07:55;102019.06;;;2.75;100.00
76022;BME280;64718;52.124;6.226;2023-03-05T03:10:22;102014.78;;;2.74;100.00
76022;BME280;64718;52.124;6.226;2023-03-05T03:12:50;102007.91;;;2.73;100.00
76022;BME280;64718;52.124;6.226;2023-03-05T03:15:17;102009.66;;;2.74;100.00
76022;BME280;64718;52.124;6.226;2023-03-05T03:17:44;102007.06;;;2.71;100.00
76022;BME280;64718;52.124;6.226;2023-03-05T03:20:13;102001.91;;;2.71;100.00
76022;BME280;64718;52.124;6.226;2023-03-05T03:22:41;102001.06;;;2.73;100.00
76022;BME280;64718;52.124;6.226;2023-03-05T03:25:09;101994.22;;;2.71;100.00
76022;BME280;64718;52.124;6.226;2023-03-05T03:27:36;101989.06;;;2.71;100.00
76022;BME280;64718;52.124;6.226;2023-03-05T03:30:05;101983.94;;;2.71;100.00
76022;BME280;64718;52.124;6.226;2023-03-05T03:32:39;101983.94;;;2.72;100.00
76022;BME280;64718;52.124;6.226;2023-03-05T03:35:10;101970.22;;;2.67;100.00
76022;BME280;64718;52.124;6.226;2023-03-05T03:37:37;101976.22;;;2.71;100.00
76022;BME280;64718;52.124;6.226;2023-03-05T03:40:05;101975.34;;;2.69;100.00
76022;BME280;64718;52.124;6.226;2023-03-05T03:42:32;101976.25;;;2.72;100.00
76022;BME280;64718;52.124;6.226;2023-03-05T03:44:59;101968.50;;;2.69;100.00
76022;BME280;64718;52.124;6.226;2023-03-05T03:47:28;101958.22;;;2.66;100.00
76022;BME280;64718;52.124;6.226;2023-03-05T03:49:54;101965.06;;;2.67;100.00
76022;BME280;64718;52.124;6.226;2023-03-05T03:52:21;101958.22;;;2.68;100.00
76022;BME280;64718;52.124;6.226;2023-03-05T03:54:48;101954.81;;;2.69;100.00
76022;BME280;64718;52.124;6.226;2023-03-05T03:57:16;101953.06;;;2.63;100.00
76022;BME280;64718;52.124;6.226;2023-03-05T03:59:43;101953.91;;;2.64;100.00
76022;BME280;64718;52.124;6.226;2023-03-05T04:02:10;101947.91;;;2.63;100.00
76022;BME280;64718;52.124;6.226;2023-03-05T04:04:38;101947.06;;;2.63;100.00
76022;BME280;64718;52.124;6.226;2023-03-05T04:07:05;101937.63;;;2.59;100.00
76022;BME280;64718;52.124;6.226;2023-03-05T04:09:31;101941.03;;;2.59;100.00
76022;BME280;64718;52.124;6.226;2023-03-05T04:12:02;101932.50;;;2.60;100.00
76022;BME280;64718;52.124;6.226;2023-03-05T04:14:28;101928.19;;;2.56;100.00
76022;BME280;64718;52.124;6.226;2023-03-05T04:16:55;101935.06;;;2.63;100.00
76022;BME280;64718;52.124;6.226;2023-03-05T04:19:21;101936.75;;;2.60;100.00
76022;BME280;64718;52.124;6.226;2023-03-05T04:21:49;101926.47;;;2.58;100.00
76022;BME280;64718;52.124;6.226;2023-03-05T04:24:16;101920.50;;;2.59;100.00
76022;BME280;64718;52.124;6.226;2023-03-05T04:26:42;101919.63;;;2.59;100.00
76022;BME280;64718;52.124;6.226;2023-03-05T04:29:09;101917.94;;;2.62;100.00
76022;BME280;64718;52.124;6.226;2023-03-05T04:31:39;101921.38;;;2.61;100.00
76022;BME280;64718;52.124;6.226;2023-03-05T04:34:06;101916.22;;;2.58;100.00
76022;BME280;64718;52.124;6.226;2023-03-05T04:36:32;101911.94;;;2.59;100.00
76022;BME280;64718;52.124;6.226;2023-03-05T04:39:00;101913.66;;;2.60;100.00
76022;BME280;64718;52.124;6.226;2023-03-05T04:41:27;101911.09;;;2.60;100.00
76022;BME280;64718;52.124;6.226;2023-03-05T04:43:53;101916.22;;;2.61;100.00
76022;BME280;64718;52.124;6.226;2023-03-05T04:46:23;101914.53;;;2.62;100.00
76022;BME280;64718;52.124;6.226;2023-03-05T04:48:49;101911.09;;;2.61;100.00
76022;BME280;64718;52.124;6.226;2023-03-05T04:51:16;101914.53;;;2.62;100.00
76022;BME280;64718;52.124;6.226;2023-03-05T04:53:42;101916.19;;;2.57;100.00
76022;BME280;64718;52.124;6.226;2023-03-05T04:56:10;101910.19;;;2.53;100.00
76022;BME280;64718;52.124;6.226;2023-03-05T04:58:37;101908.47;;;2.53;100.00
76022;BME280;64718;52.124;6.226;2023-03-05T05:01:05;101914.47;;;2.52;100.00
76022;BME280;64718;52.124;6.226;2023-03-05T05:03:32;101899.00;;;2.45;100.00
76022;BME280;64718;52.124;6.226;2023-03-05T05:05:59;101899.84;;;2.45;100.00
76022;BME280;64718;52.124;6.226;2023-03-05T05:08:26;101900.66;;;2.40;100.00
76022;BME280;64718;52.124;6.226;2023-03-05T05:10:55;101893.81;;;2.40;100.00
76022;BME280;64718;52.124;6.226;2023-03-05T05:13:23;101885.25;;;2.40;100.00
76022;BME280;64718;52.124;6.226;2023-03-05T05:15:50;101887.84;;;2.43;100.00
76022;BME280;64718;52.124;6.226;2023-03-05T05:18:17;101887.03;;;2.47;100.00
76022;BME280;64718;52.124;6.226;2023-03-05T05:20:44;101882.78;;;2.50;100.00
76022;BME280;64718;52.124;6.226;2023-03-05T05:23:10;101884.47;;;2.47;100.00
76022;BME280;64718;52.124;6.226;2023-03-05T05:25:37;101887.03;;;2.48;100.00
76022;BME280;64718;52.124;6.226;2023-03-05T05:28:04;101874.22;;;2.51;100.00
76022;BME280;64718;52.124;6.226;2023-03-05T05:30:32;101870.78;;;2.49;100.00
76022;BME280;64718;52.124;6.226;2023-03-05T05:32:58;101863.91;;;2.45;100.00
76022;BME280;64718;52.124;6.226;2023-03-05T05:35:25;101867.34;;;2.46;100.00
76022;BME280;64718;52.124;6.226;2023-03-05T05:37:51;101870.72;;;2.42;100.00
76022;BME280;64718;52.124;6.226;2023-03-05T05:40:18;101868.19;;;2.45;100.00
76022;BME280;64718;52.124;6.226;2023-03-05T05:42:44;101876.78;;;2.48;100.00
76022;BME280;64718;52.124;6.226;2023-03-05T05:45:11;101873.34;;;2.46;100.00
76022;BME280;64718;52.124;6.226;2023-03-05T05:47:39;101870.75;;;2.46;100.00
76022;BME280;64718;52.124;6.226;2023-03-05T05:50:11;101870.78;;;2.49;100.00
76022;BME280;64718;52.124;6.226;2023-03-05T05:52:41;101873.34;;;2.49;100.00
76022;BME280;64718;52.124;6.226;2023-03-05T05:55:09;101871.69;;;2.54;100.00
76022;BME280;64718;52.124;6.226;2023-03-05T05:57:42;101866.53;;;2.54;100.00
76022;BME280;64718;52.124;6.226;2023-03-05T06:00:10;101874.25;;;2.54;100.00
76022;BME280;64718;52.124;6.226;2023-03-05T06:02:41;101870.81;;;2.56;100.00
76022;BME280;64718;52.124;6.226;2023-03-05T06:05:12;101869.97;;;2.53;100.00
76022;BME280;64718;52.124;6.226;2023-03-05T06:07:41;101872.53;;;2.55;100.00
76022;BME280;64718;52.124;6.226;2023-03-05T06:10:12;101866.56;;;2.58;100.00
76022;BME280;64718;52.124;6.226;2023-03-05T06:12:42;101868.25;;;2.52;100.00
76022;BME280;64718;52.124;6.226;2023-03-05T06:15:09;101867.34;;;2.49;100.00
76022;BME280;64718;52.124;6.226;2023-03-05T06:17:35;101855.38;;;2.48;100.00
76022;BME280;64718;52.124;6.226;2023-03-05T06:20:05;101863.91;;;2.45;100.00
76022;BME280;64718;52.124;6.226;2023-03-05T06:22:34;101861.31;;;2.41;100.00
76022;BME280;64718;52.124;6.226;2023-03-05T06:25:03;101863.03;;;2.40;100.00
76022;BME280;64718;52.124;6.226;2023-03-05T06:27:30;101873.31;;;2.42;100.00
76022;BME280;64718;52.124;6.226;2023-03-05T06:29:56;101863.88;;;2.42;100.00
76022;BME280;64718;52.124;6.226;2023-03-05T06:32:23;101862.16;;;2.41;100.00
76022;BME280;64718;52.124;6.226;2023-03-05T06:34:49;101860.47;;;2.42;100.00
76022;BME280;64718;52.124;6.226;2023-03-05T06:37:19;101859.63;;;2.46;100.00
76022;BME280;64718;52.124;6.226;2023-03-05T06:39:49;101853.63;;;2.45;100.00
76022;BME280;64718;52.124;6.226;2023-03-05T06:42:15;101856.22;;;2.47;100.00
76022;BME280;64718;52.124;6.226;2023-03-05T06:44:43;101859.69;;;2.53;100.00
76022;BME280;64718;52.124;6.226;2023-03-05T06:47:10;101852.00;;;2.55;100.00
76022;BME280;64718;52.124;6.226;2023-03-05T06:49:43;101852.00;;;2.58;100.00
76022;BME280;64718;52.124;6.226;2023-03-05T06:52:09;101852.03;;;2.60;100.00
76022;BME280;64718;52.124;6.226;2023-03-05T06:54:38;101861.44;;;2.61;100.00
76022;BME280;64718;52.124;6.226;2023-03-05T06:57:04;101859.75;;;2.61;100.00
76022;BME280;64718;52.124;6.226;2023-03-05T06:59:31;101859.72;;;2.58;100.00
76022;BME280;64718;52.124;6.226;2023-03-05T07:01:58;101856.28;;;2.56;100.00
76022;BME280;64718;52.124;6.226;2023-03-05T07:04:27;101862.31;;;2.63;100.00
76022;BME280;64718;52.124;6.226;2023-03-05T07:06:54;101860.59;;;2.60;100.00
76022;BME280;64718;52.124;6.226;2023-03-05T07:09:23;101854.63;;;2.66;100.00
76022;BME280;64718;52.124;6.226;2023-03-05T07:11:51;101859.75;;;2.64;100.00
76022;BME280;64718;52.124;6.226;2023-03-05T07:14:18;101864.03;;;2.64;100.00
76022;BME280;64718;52.124;6.226;2023-03-05T07:16:48;101863.19;;;2.65;100.00
76022;BME280;64718;52.124;6.226;2023-03-05T07:19:15;101861.44;;;2.62;100.00
76022;BME280;64718;52.124;6.226;2023-03-05T07:21:42;101860.59;;;2.63;100.00
76022;BME280;64718;52.124;6.226;2023-03-05T07:24:11;101850.34;;;2.65;100.00
76022;BME280;64718;52.124;6.226;2023-03-05T07:26:42;101852.94;;;2.71;100.00
76022;BME280;64718;52.124;6.226;2023-03-05T07:29:10;101850.44;;;2.80;100.00
76022;BME280;64718;52.124;6.226;2023-03-05T07:31:37;101847.00;;;2.82;100.00
76022;BME280;64718;52.124;6.226;2023-03-05T07:34:04;101853.03;;;2.84;100.00
76022;BME280;64718;52.124;6.226;2023-03-05T07:36:30;101844.53;;;2.92;100.00
76022;BME280;64718;52.124;6.226;2023-03-05T07:38:59;101848.84;;;3.02;100.00
76022;BME280;64718;52.124;6.226;2023-03-05T07:41:25;101838.59;;;3.08;100.00
76022;BME280;64718;52.124;6.226;2023-03-05T07:43:53;101836.91;;;3.10;100.00
76022;BME280;64718;52.124;6.226;2023-03-05T07:46:23;101836.06;;;3.17;100.00
76022;BME280;64718;52.124;6.226;2023-03-05T07:48:50;101844.66;;;3.27;100.00
76022;BME280;64718;52.124;6.226;2023-03-05T07:51:19;101836.09;;;3.26;100.00
76022;BME280;64718;52.124;6.226;2023-03-05T07:53:47;101834.41;;;3.37;100.00
76022;BME280;64718;52.124;6.226;2023-03-05T07:56:20;101837.91;;;3.58;100.00
76022;BME280;64718;52.124;6.226;2023-03-05T07:58:48;101842.22;;;3.69;100.00
76022;BME280;64718;52.124;6.226;2023-03-05T08:01:14;101835.38;;;3.67;100.00
76022;BME280;64718;52.124;6.226;2023-03-05T08:03:45;101831.06;;;3.60;100.00
76022;BME280;64718;52.124;6.226;2023-03-05T08:06:12;101834.50;;;3.59;100.00
76022;BME280;64718;52.124;6.226;2023-03-05T08:08:39;101831.91;;;3.56;100.00
76022;BME280;64718;52.124;6.226;2023-03-05T08:11:15;101834.50;;;3.65;100.00
76022;BME280;64718;52.124;6.226;2023-03-05T08:13:43;101826.78;;;3.56;100.00
76022;BME280;64718;52.124;6.226;2023-03-05T08:16:16;101829.34;;;3.60;100.00
76022;BME280;64718;52.124;6.226;2023-03-05T08:18:45;101832.78;;;3.68;100.00
76022;BME280;64718;52.124;6.226;2023-03-05T08:21:16;101826.78;;;3.68;100.00
76022;BME280;64718;52.124;6.226;2023-03-05T08:23:43;101829.38;;;3.74;100.00
76022;BME280;64718;52.124;6.226;2023-03-05T08:26:11;101825.94;;;3.78;100.00
76022;BME280;64718;52.124;6.226;2023-03-05T08:28:39;101825.09;;;3.80;100.00
76022;BME280;64718;52.124;6.226;2023-03-05T08:31:08;101823.38;;;3.76;100.00
76022;BME280;64718;52.124;6.226;2023-03-05T08:33:35;101827.66;;;3.82;100.00
76022;BME280;64718;52.124;6.226;2023-03-05T08:36:04;101820.81;;;3.92;100.00
76022;BME280;64718;52.124;6.226;2023-03-05T08:38:31;101816.53;;;4.01;100.00
76022;BME280;64718;52.124;6.226;2023-03-05T08:40:59;101815.69;;;4.21;100.00
76022;BME280;64718;52.124;6.226;2023-03-05T08:43:25;101812.25;;;4.16;100.00
76022;BME280;64718;52.124;6.226;2023-03-05T08:45:54;101804.50;;;4.35;100.00
76022;BME280;64718;52.124;6.226;2023-03-05T08:48:30;101796.72;;;4.66;100.00
76022;BME280;64718;52.124;6.226;2023-03-05T08:51:05;101794.09;;;4.81;100.00
76022;BME280;64718;52.124;6.226;2023-03-05T08:53:32;101802.66;;;4.92;100.00
76022;BME280;64718;52.124;6.226;2023-03-05T08:55:59;101795.81;;;4.81;100.00
76022;BME280;64718;52.124;6.226;2023-03-05T08:58:26;101797.56;;;4.77;100.00
76022;BME280;64718;52.124;6.226;2023-03-05T09:00:53;101795.84;;;4.70;100.00
76022;BME280;64718;52.124;6.226;2023-03-05T09:03:20;101798.44;;;4.73;100.00
76022;BME280;64718;52.124;6.226;2023-03-05T09:05:47;101788.91;;;4.93;100.00
76022;BME280;64718;52.124;6.226;2023-03-05T09:08:15;101785.38;;;5.09;100.00
76022;BME280;64718;52.124;6.226;2023-03-05T09:10:43;101790.06;;;5.95;100.00
76022;BME280;64718;52.124;6.226;2023-03-05T09:13:09;101781.13;;;6.28;100.00
76022;BME280;64718;52.124;6.226;2023-03-05T09:15:36;101777.22;;;6.75;99.65
76022;BME280;64718;52.124;6.226;2023-03-05T09:18:03;101773.63;;;6.86;97.55
76022;BME280;64718;52.124;6.226;2023-03-05T09:20:31;101772.03;;;6.75;97.81
76022;BME280;64718;52.124;6.226;2023-03-05T09:22:58;101771.03;;;6.86;96.28
76022;BME280;64718;52.124;6.226;2023-03-05T09:25:26;101762.16;;;6.30;94.86
76022;BME280;64718;52.124;6.226;2023-03-05T09:27:52;101769.44;;;6.76;96.64
76022;BME280;64718;52.124;6.226;2023-03-05T09:30:20;101767.47;;;6.96;96.63
76022;BME280;64718;52.124;6.226;2023-03-05T09:32:46;101761.47;;;6.91;96.75
76022;BME280;64718;52.124;6.226;2023-03-05T09:35:15;101749.81;;;6.60;95.86
76022;BME280;64718;52.124;6.226;2023-03-05T09:37:45;101752.63;;;6.39;95.52
76022;BME280;64718;52.124;6.226;2023-03-05T09:40:15;101749.09;;;6.49;97.15
76022;BME280;64718;52.124;6.226;2023-03-05T09:42:53;101744.31;;;6.09;95.29
76022;BME280;64718;52.124;6.226;2023-03-05T09:45:27;101744.34;;;6.05;95.65
76022;BME280;64718;52.124;6.226;2023-03-05T09:48:02;101750.06;;;6.37;95.93
76022;BME280;64718;52.124;6.226;2023-03-05T09:50:39;101741.72;;;6.86;92.82
76022;BME280;64718;52.124;6.226;2023-03-05T09:53:22;101745.66;;;7.16;92.31
76022;BME280;64718;52.124;6.226;2023-03-05T09:55:52;101744.69;;;7.23;91.13
76022;BME280;64718;52.124;6.226;2023-03-05T09:58:24;101748.22;;;7.17;91.33
76022;BME280;64718;52.124;6.226;2023-03-05T10:00:59;101744.31;;;6.86;92.32
76022;BME280;64718;52.124;6.226;2023-03-05T10:03:31;101742.41;;;7.02;93.18
76022;BME280;64718;52.124;6.226;2023-03-05T10:06:04;101739.38;;;6.68;89.33
76022;BME280;64718;52.124;6.226;2023-03-05T10:08:43;101744.34;;;6.83;90.16
76022;BME280;64718;52.124;6.226;2023-03-05T10:11:29;101746.53;;;7.16;88.64
76022;BME280;64718;52.124;6.226;2023-03-05T10:14:01;101733.03;;;6.91;88.14
76022;BME280;64718;52.124;6.226;2023-03-05T10:16:44;101726.56;;;7.24;89.17
76022;BME280;64718;52.124;6.226;2023-03-05T10:19:21;101728.81;;;7.47;89.51
76022;BME280;64718;52.124;6.226;2023-03-05T10:22:07;101718.72;;;7.84;86.00
76022;BME280;64718;52.124;6.226;2023-03-05T10:24:46;101715.56;;;8.18;84.20
76022;BME280;64718;52.124;6.226;2023-03-05T10:27:19;101707.41;;;7.90;83.17
76022;BME280;64718;52.124;6.226;2023-03-05T10:29:53;101703.94;;;7.91;85.03
76022;BME280;64718;52.124;6.226;2023-03-05T10:32:39;101702.19;;;7.91;87.46
76022;BME280;64718;52.124;6.226;2023-03-05T10:35:20;101700.22;;;8.04;84.43
76022;BME280;64718;52.124;6.226;2023-03-05T10:38:01;101692.22;;;8.18;83.47
76022;BME280;64718;52.124;6.226;2023-03-05T10:40:35;101692.63;;;7.95;79.88
76022;BME280;64718;52.124;6.226;2023-03-05T10:43:13;101684.59;;;8.09;80.52
76022;BME280;64718;52.124;6.226;2023-03-05T10:45:49;101695.03;;;8.06;79.95
76022;BME280;64718;52.124;6.226;2023-03-05T10:48:27;101677.91;;;7.97;83.08
76022;BME280;64718;52.124;6.226;2023-03-05T10:51:01;101675.88;;;7.67;80.81
76022;BME280;64718;52.124;6.226;2023-03-05T10:53:33;101679.81;;;7.35;82.69
76022;BME280;64718;52.124;6.226;2023-03-05T10:56:02;101669.06;;;7.61;82.49
76022;BME280;64718;52.124;6.226;2023-03-05T10:58:29;101680.59;;;7.42;83.06
76022;BME280;64718;52.124;6.226;2023-03-05T11:01:00;101666.91;;;7.86;81.74
76022;BME280;64718;52.124;6.226;2023-03-05T11:03:47;101666.06;;;8.30;81.51
76022;BME280;64718;52.124;6.226;2023-03-05T11:06:26;101654.59;;;8.43;81.15
76022;BME280;64718;52.124;6.226;2023-03-05T11:08:53;101652.09;;;7.92;77.95
76022;BME280;64718;52.124;6.226;2023-03-05T11:11:20;101650.88;;;8.13;78.14
76022;BME280;64718;52.124;6.226;2023-03-05T11:13:52;101656.50;;;7.87;79.24
76022;BME280;64718;52.124;6.226;2023-03-05T11:16:23;101651.16;;;7.97;78.98
76022;BME280;64718;52.124;6.226;2023-03-05T11:21:33;101640.22;;;8.27;81.00
76022;BME280;64718;52.124;6.226;2023-03-05T11:24:04;101634.06;;;8.34;79.24
76022;BME280;64718;52.124;6.226;2023-03-05T11:26:32;101627.97;;;8.37;78.50
76022;BME280;64718;52.124;6.226;2023-03-05T11:29:00;101626.53;;;8.20;77.54
76022;BME280;64718;52.124;6.226;2023-03-05T11:31:29;101626.28;;;8.34;79.47
76022;BME280;64718;52.124;6.226;2023-03-05T11:33:59;101624.31;;;8.45;78.47
76022;BME280;64718;52.124;6.226;2023-03-05T11:36:27;101632.09;;;8.01;77.95
76022;BME280;64718;52.124;6.226;2023-03-05T11:38:57;101616.28;;;7.70;81.43
76022;BME280;64718;52.124;6.226;2023-03-05T11:41:30;101636.69;;;7.36;84.62
76022;BME280;64718;52.124;6.226;2023-03-05T11:43:59;101644.00;;;7.09;85.74
76022;BME280;64718;52.124;6.226;2023-03-05T11:46:34;101633.28;;;6.77;86.23
76022;BME280;64718;52.124;6.226;2023-03-05T11:49:04;101637.06;;;6.53;87.88
76022;BME280;64718;52.124;6.226;2023-03-05T11:51:40;101635.47;;;6.41;89.69
76022;BME280;64718;52.124;6.226;2023-03-05T11:54:22;101637.34;;;6.27;89.81
76022;BME280;64718;52.124;6.226;2023-03-05T11:56:53;101630.50;;;6.23;89.65
76022;BME280;64718;52.124;6.226;2023-03-05T11:59:24;101629.78;;;6.12;89.86
76022;BME280;64718;52.124;6.226;2023-03-05T12:01:55;101627.22;;;6.10;90.21
76022;BME280;64718;52.124;6.226;2023-03-05T12:04:23;101626.59;;;5.85;90.11
76022;BME280;64718;52.124;6.226;2023-03-05T12:06:51;101618.84;;;5.87;89.92
76022;BME280;64718;52.124;6.226;2023-03-05T12:09:24;101613.03;;;5.65;91.04
76022;BME280;64718;52.124;6.226;2023-03-05T12:11:59;101607.75;;;5.76;91.13
76022;BME280;64718;52.124;6.226;2023-03-05T12:14:32;101601.84;;;5.66;89.66
76022;BME280;64718;52.124;6.226;2023-03-05T12:17:08;101604.38;;;5.70;91.58
76022;BME280;64718;52.124;6.226;2023-03-05T12:19:47;101600.75;;;5.88;91.22
76022;BME280;64718;52.124;6.226;2023-03-05T12:22:18;101593.66;;;6.10;91.26
76022;BME280;64718;52.124;6.226;2023-03-05T12:24:45;101590.13;;;6.17;90.66
76022;BME280;64718;52.124;6.226;2023-03-05T12:27:15;101594.28;;;6.29;90.56
76022;BME280;64718;52.124;6.226;2023-03-05T12:29:47;101581.22;;;6.41;88.83
76022;BME280;64718;52.124;6.226;2023-03-05T12:35:26;101572.78;;;6.27;87.60
76022;BME280;64718;52.124;6.226;2023-03-05T12:38:08;101562.97;;;6.52;86.57
76022;BME280;64718;52.124;6.226;2023-03-05T12:40:39;101559.38;;;6.63;86.05
76022;BME280;64718;52.124;6.226;2023-03-05T12:43:29;101549.22;;;7.07;85.38
76022;BME280;64718;52.124;6.226;2023-03-05T12:46:29;101541.59;;;6.99;83.55
76022;BME280;64718;52.124;6.226;2023-03-05T12:48:59;101537.34;;;6.93;84.56
76022;BME280;64718;52.124;6.226;2023-03-05T12:51:33;101535.63;;;6.95;82.95
76022;BME280;64718;52.124;6.226;2023-03-05T12:54:20;101530.84;;;7.22;83.22
76022;BME280;64718;52.124;6.226;2023-03-05T12:56:47;101523.66;;;6.87;83.03
76022;BME280;64718;52.124;6.226;2023-03-05T12:59:17;101513.53;;;6.75;83.33
76022;BME280;64718;52.124;6.226;2023-03-05T13:01:46;101515.13;;;6.82;84.18
76022;BME280;64718;52.124;6.226;2023-03-05T13:04:18;101510.63;;;6.94;83.45
76022;BME280;64718;52.124;6.226;2023-03-05T13:06:57;101505.97;;;6.62;84.69
76022;BME280;64718;52.124;6.226;2023-03-05T13:09:27;101504.38;;;6.54;85.82